createdAt,value
2023-01-30T00:01:03.799Z,12.70
2023-01-30T00:03:31.648Z,13.25
2023-01-30T00:05:59.155Z,12.45
2023-01-30T00:08:26.599Z,11.93
2023-01-30T00:10:54.443Z,12.48
2023-01-30T00:13:21.843Z,13.18
2023-01-30T00:15:49.270Z,13.27
2023-01-30T00:18:16.943Z,12.32
2023-01-30T00:20:44.375Z,13.65
2023-01-30T00:23:11.767Z,12.90
2023-01-30T00:25:39.643Z,13.23
2023-01-30T00:28:07.193Z,14.13
2023-01-30T00:30:34.729Z,13.40
2023-01-30T00:33:02.456Z,12.73
2023-01-30T00:35:30.078Z,18.05
2023-01-30T00:37:58.312Z,15.23
2023-01-30T00:40:27.838Z,13.10
2023-01-30T00:43:14.398Z,13.05
2023-01-30T00:46:02.835Z,13.60
2023-01-30T00:48:30.394Z,14.87
2023-01-30T00:50:58.197Z,16.60
2023-01-30T00:53:25.833Z,15.43
2023-01-30T00:55:53.983Z,16.17
2023-01-30T00:58:22.516Z,17.48
2023-01-30T01:00:50.574Z,16.92
2023-01-30T01:03:18.699Z,16.80
2023-01-30T01:05:46.453Z,17.42
2023-01-30T01:08:15.027Z,15.65
2023-01-30T01:10:42.613Z,15.20
2023-01-30T01:13:10.692Z,15.80
2023-01-30T01:15:38.241Z,14.35
2023-01-30T01:18:06.567Z,14.87
2023-01-30T01:20:34.340Z,13.62
2023-01-30T01:23:03.428Z,16.98
2023-01-30T01:27:58.440Z,14.45
2023-01-30T01:30:25.916Z,14.65
2023-01-30T01:32:53.394Z,17.93
2023-01-30T01:35:21.088Z,17.15
2023-01-30T01:37:48.603Z,17.83
2023-01-30T01:40:37.894Z,18.55
2023-01-30T01:43:23.078Z,18.50
2023-01-30T01:48:54.822Z,15.80
2023-01-30T01:51:49.981Z,15.35
2023-01-30T01:54:22.876Z,14.13
2023-01-30T01:56:50.574Z,14.82
2023-01-30T01:59:24.893Z,14.50
2023-01-30T02:01:55.293Z,15.13
2023-01-30T02:07:09.137Z,14.35
2023-01-30T02:09:37.665Z,14.23
2023-01-30T02:12:05.986Z,13.70
2023-01-30T02:14:34.306Z,14.48
2023-01-30T02:17:01.719Z,15.80
2023-01-30T02:19:41.498Z,16.62
2023-01-30T02:22:29.040Z,16.15
2023-01-30T02:25:15.094Z,17.08
2023-01-30T02:27:58.254Z,17.00
2023-01-30T02:30:41.284Z,16.65
2023-01-30T02:33:23.324Z,16.23
2023-01-30T02:36:03.053Z,14.15
2023-01-30T02:38:43.255Z,13.27
2023-01-30T02:41:15.494Z,13.73
2023-01-30T02:44:18.336Z,15.07
2023-01-30T02:46:54.642Z,16.77
2023-01-30T02:49:29.812Z,15.70
2023-01-30T02:52:00.400Z,15.07
2023-01-30T03:07:30.508Z,15.32
2023-01-30T03:10:24.365Z,14.35
2023-01-30T03:13:19.821Z,15.80
2023-01-30T03:16:00.431Z,15.52
2023-01-30T03:18:28.157Z,17.08
2023-01-30T03:20:56.095Z,15.68
2023-01-30T03:23:23.513Z,15.48
2023-01-30T03:25:51.343Z,16.73
2023-01-30T03:28:21.240Z,16.70
2023-01-30T03:30:49.028Z,15.30
2023-01-30T03:33:16.574Z,15.52
2023-01-30T03:35:47.087Z,15.35
2023-01-30T03:38:14.865Z,15.98
2023-01-30T03:40:42.727Z,15.75
2023-01-30T03:43:10.469Z,16.30
2023-01-30T03:45:38.008Z,18.30
2023-01-30T03:48:05.925Z,16.87
2023-01-30T03:50:33.928Z,16.50
2023-01-30T03:53:01.543Z,15.98
2023-01-30T03:55:29.491Z,15.55
2023-01-30T03:57:58.029Z,17.83
2023-01-30T04:00:27.523Z,16.77
2023-01-30T04:02:57.197Z,16.77
2023-01-30T04:05:43.920Z,16.73
2023-01-30T04:08:11.607Z,16.45
2023-01-30T04:10:39.058Z,16.42
2023-01-30T04:13:06.595Z,15.23
2023-01-30T04:15:34.359Z,14.90
2023-01-30T04:18:02.117Z,16.77
2023-01-30T04:20:30.333Z,16.55
2023-01-30T04:22:58.194Z,15.85
2023-01-30T04:25:25.884Z,15.43
2023-01-30T04:27:53.389Z,15.43
2023-01-30T04:30:21.437Z,14.80
2023-01-30T04:32:49.959Z,15.57
2023-01-30T04:35:17.650Z,15.00
2023-01-30T04:37:45.770Z,15.57
2023-01-30T04:40:13.676Z,17.92
2023-01-30T04:42:41.226Z,17.05
2023-01-30T04:45:11.835Z,15.88
2023-01-30T04:47:39.329Z,15.63
2023-01-30T04:50:07.255Z,16.45
2023-01-30T04:52:35.037Z,16.85
2023-01-30T04:55:03.135Z,15.77
2023-01-30T04:57:30.654Z,16.30
2023-01-30T04:59:58.896Z,15.23
2023-01-30T05:02:26.563Z,14.45
2023-01-30T05:04:53.973Z,13.98
2023-01-30T05:07:22.112Z,15.75
2023-01-30T05:09:49.607Z,18.98
2023-01-30T05:12:17.028Z,18.73
2023-01-30T05:14:46.507Z,16.60
2023-01-30T05:17:13.998Z,15.70
2023-01-30T05:19:41.445Z,13.65
2023-01-30T05:22:09.100Z,14.35
2023-01-30T05:24:36.805Z,13.95
2023-01-30T05:27:04.615Z,14.20
2023-01-30T05:29:32.351Z,14.48
2023-01-30T05:31:59.745Z,14.65
2023-01-30T05:34:27.208Z,13.98
2023-01-30T05:36:54.880Z,15.98
2023-01-30T05:41:49.542Z,16.45
2023-01-30T05:44:17.253Z,18.30
2023-01-30T05:46:44.763Z,20.58
2023-01-30T05:49:12.191Z,20.00
2023-01-30T05:51:39.860Z,19.30
2023-01-30T06:01:29.810Z,20.40
2023-01-30T06:03:58.514Z,21.62
2023-01-30T06:06:26.033Z,21.60
2023-01-30T06:08:54.892Z,28.35
2023-01-30T06:11:23.654Z,22.13
2023-01-30T06:13:51.151Z,21.73
2023-01-30T06:16:19.255Z,25.33
2023-01-30T06:18:47.253Z,25.15
2023-01-30T06:21:15.336Z,22.50
2023-01-30T06:23:43.090Z,20.52
2023-01-30T06:26:10.851Z,20.60
2023-01-30T06:33:33.920Z,19.95
2023-01-30T06:36:01.608Z,19.27
2023-01-30T06:38:29.055Z,18.77
2023-01-30T06:40:56.735Z,18.75
2023-01-30T06:43:24.119Z,19.35
2023-01-30T06:45:51.906Z,20.33
2023-01-30T06:48:19.703Z,19.12
2023-01-30T06:50:48.230Z,19.17
2023-01-30T06:53:15.761Z,20.60
2023-01-30T06:55:43.639Z,20.58
2023-01-30T06:58:13.005Z,22.27
2023-01-30T07:00:42.478Z,22.92
2023-01-30T07:03:11.809Z,18.55
2023-01-30T07:05:40.130Z,18.98
2023-01-30T07:08:07.825Z,19.15
2023-01-30T07:10:36.018Z,19.83
2023-01-30T07:13:04.117Z,18.77
2023-01-30T07:15:32.438Z,20.92
2023-01-30T07:18:00.688Z,17.67
2023-01-30T07:20:30.092Z,16.90
2023-01-30T07:22:57.726Z,16.65
2023-01-30T07:25:26.921Z,14.98
2023-01-30T07:27:59.946Z,16.70
2023-01-30T07:30:29.270Z,17.02
2023-01-30T07:32:58.086Z,16.00
2023-01-30T07:35:26.882Z,14.70
2023-01-30T07:37:54.636Z,15.65
2023-01-30T07:40:22.322Z,15.50
2023-01-30T07:43:00.389Z,14.90
2023-01-30T07:45:35.893Z,14.77
2023-01-30T07:48:03.693Z,15.85
2023-01-30T07:50:31.452Z,17.02
2023-01-30T07:52:58.998Z,16.75
2023-01-30T07:55:27.311Z,14.48
2023-01-30T07:57:55.029Z,15.55
2023-01-30T08:00:22.621Z,16.00
2023-01-30T08:02:50.336Z,16.33
2023-01-30T08:05:17.797Z,18.40
2023-01-30T08:07:47.441Z,15.57
2023-01-30T08:10:15.938Z,15.23
2023-01-30T08:12:43.593Z,13.25
2023-01-30T08:15:11.281Z,14.32
2023-01-30T08:17:39.085Z,15.25
2023-01-30T08:20:07.247Z,16.70
2023-01-30T08:22:34.754Z,13.80
2023-01-30T08:25:02.629Z,13.50
2023-01-30T08:27:30.227Z,14.55
2023-01-30T08:29:57.833Z,14.60
2023-01-30T08:32:25.565Z,15.15
2023-01-30T08:34:53.001Z,15.50
2023-01-30T08:37:20.470Z,16.25
2023-01-30T08:39:48.154Z,17.60
2023-01-30T08:42:15.614Z,16.67
2023-01-30T08:44:42.988Z,23.73
2023-01-30T08:47:10.703Z,40.28
2023-01-30T08:49:38.119Z,22.52
2023-01-30T08:52:05.705Z,16.23
2023-01-30T08:54:33.462Z,14.45
2023-01-30T08:57:00.848Z,16.05
2023-01-30T08:59:28.219Z,12.23
2023-01-30T09:01:56.068Z,12.88
2023-01-30T09:04:25.059Z,12.80
2023-01-30T09:06:52.824Z,11.52
2023-01-30T09:09:20.560Z,13.52
2023-01-30T09:11:48.290Z,14.35
2023-01-30T09:14:19.958Z,16.12
2023-01-30T09:16:49.700Z,13.85
2023-01-30T09:19:17.112Z,13.38
2023-01-30T09:24:11.984Z,12.43
2023-01-30T09:29:07.901Z,12.40
2023-01-30T09:31:35.905Z,12.00
2023-01-30T09:34:03.552Z,13.05
2023-01-30T09:38:58.482Z,12.45
2023-01-30T09:41:50.726Z,12.45
2023-01-30T10:10:26.868Z,14.07
2023-01-30T10:13:10.314Z,12.77
2023-01-30T10:15:50.489Z,17.25
2023-01-30T10:18:50.128Z,17.63
2023-01-30T10:21:47.655Z,14.23
2023-01-30T10:24:42.149Z,13.80
2023-01-30T10:27:17.019Z,13.13
2023-01-30T10:32:29.030Z,13.52
2023-01-30T10:35:00.152Z,13.57
2023-01-30T10:37:32.975Z,13.27
2023-01-30T10:42:49.157Z,13.40
2023-01-30T10:45:20.560Z,11.68
2023-01-30T10:47:55.303Z,11.45
2023-01-30T10:51:15.175Z,15.13
2023-01-30T10:53:48.221Z,13.98
2023-01-30T10:58:59.231Z,13.13
2023-01-30T11:01:41.336Z,12.25
2023-01-30T11:04:36.562Z,12.80
2023-01-30T11:07:05.663Z,15.20
2023-01-30T11:09:44.568Z,12.55
2023-01-30T11:12:12.334Z,13.07
2023-01-30T11:15:00.922Z,12.27
2023-01-30T11:19:58.289Z,12.07
2023-01-30T11:22:27.130Z,13.38
2023-01-30T11:25:24.221Z,12.13
2023-01-30T11:27:55.056Z,13.00
2023-01-30T11:30:27.969Z,12.93
2023-01-30T11:33:11.650Z,13.50
2023-01-30T11:35:59.127Z,13.07
2023-01-30T11:38:32.792Z,12.93
2023-01-30T11:41:11.542Z,13.40
2023-01-30T11:43:40.135Z,11.30
2023-01-30T11:46:09.267Z,11.88
2023-01-30T11:49:02.668Z,11.73
2023-01-30T11:54:05.351Z,11.80
2023-01-30T12:04:12.065Z,11.48
2023-01-30T12:06:42.327Z,11.50
2023-01-30T12:09:30.473Z,13.35
2023-01-30T12:11:57.895Z,11.75
2023-01-30T12:14:25.592Z,16.83
2023-01-30T12:17:18.448Z,11.63
2023-01-30T12:19:58.472Z,13.23
2023-01-30T12:28:07.487Z,11.73
2023-01-30T12:35:50.374Z,12.68
2023-01-30T12:38:45.216Z,11.88
2023-01-30T12:44:23.381Z,12.98
2023-01-30T12:47:34.062Z,11.50
2023-01-30T12:50:10.818Z,11.60
2023-01-30T12:52:44.312Z,11.20
2023-01-30T12:55:37.627Z,11.00
2023-01-30T12:58:27.358Z,10.77
2023-01-30T13:01:16.712Z,11.35
2023-01-30T13:04:13.315Z,11.00
2023-01-30T13:06:50.309Z,11.63
2023-01-30T13:09:31.392Z,10.85
2023-01-30T13:12:01.578Z,9.82
2023-01-30T13:14:36.664Z,10.65
2023-01-30T13:17:20.336Z,11.68
2023-01-30T13:20:13.159Z,12.35
2023-01-30T13:22:52.709Z,20.08
2023-01-30T13:25:23.190Z,16.33
2023-01-30T13:27:57.797Z,13.50
2023-01-30T13:33:01.346Z,11.25
2023-01-30T13:35:30.699Z,11.30
2023-01-30T13:37:58.819Z,11.70
2023-01-30T13:40:29.206Z,11.73
2023-01-30T13:43:01.722Z,12.10
2023-01-30T13:45:32.400Z,11.93
2023-01-30T13:48:03.772Z,12.68
2023-01-30T13:50:50.566Z,12.02
2023-01-30T13:53:30.539Z,10.45
2023-01-30T13:58:45.318Z,10.10
2023-01-30T14:03:42.036Z,9.77
2023-01-30T14:06:21.873Z,10.02
2023-01-30T15:33:57.424Z,11.63
2023-01-30T15:36:31.589Z,11.05
2023-01-30T15:39:03.382Z,11.52
2023-01-30T17:21:25.422Z,14.10
2023-01-30T18:03:47.455Z,18.10
2023-01-30T18:08:44.117Z,12.18
2023-01-30T18:11:15.045Z,11.48
2023-01-30T18:28:40.579Z,15.35
2023-01-30T18:38:34.101Z,16.25
2023-01-30T18:41:14.843Z,16.70
2023-01-30T18:43:45.417Z,18.05
2023-01-30T18:46:17.975Z,25.15
2023-01-30T18:48:47.488Z,16.90
2023-01-30T18:51:20.308Z,14.77
2023-01-30T19:01:27.443Z,12.98
2023-01-30T19:03:59.712Z,12.25
2023-01-30T19:06:30.563Z,12.03
2023-01-30T19:11:46.869Z,9.90
2023-01-30T19:14:16.189Z,9.82
2023-01-30T19:16:47.010Z,7.87
2023-01-30T19:19:16.185Z,7.95
2023-01-30T19:21:45.110Z,7.68
2023-01-30T19:31:42.059Z,7.75
2023-01-30T19:59:07.582Z,11.18
2023-01-30T20:01:40.030Z,8.32
2023-01-30T20:04:08.862Z,11.68
2023-01-30T20:06:38.323Z,11.27
2023-01-30T20:09:09.839Z,7.93
2023-01-30T20:11:40.833Z,8.30
2023-01-30T21:21:55.990Z,4.47
2023-01-30T21:24:29.017Z,3.83
2023-01-30T21:29:26.118Z,4.28
2023-01-30T23:29:20.129Z,2.30
2023-01-30T23:31:47.818Z,3.05
2023-01-30T23:34:17.984Z,2.95
2023-01-30T23:36:46.378Z,2.90
2023-01-30T23:39:14.434Z,3.17
